Latest Observation

109 Stations

10 Minute Data
as of 8/31/26 8:20 PM PDT
Station Date Time Temp (°F) RH (%) Dew Pt (°F) Wind Spd (mph) Wind Dir (°) Wind Gust (mph) Wind Gst Dir (°) Latest Rain (In) Soil Moist (%) Soil Temp (°F) Daily Rain (In) Daily Min Temp (°F) Daily Max Temp (°F) Daily Max Wind (mph)
Hobart Mills 8/31/26 2020 59.9   1.9 46   9 39.0   4.2 1.4   0.3 NE | 53 4.3   1.2 NE | 43 0.00 7.7   0.0 69.2   0.0 0.00 40.1   4.5 77.0   1.8 21.7   6.1
Prosser Dam 8/31/26 2020 62.1   2.9 44   8 40.0   2.2 3.9   0.2 SW | 218 7.3   0.7 WSW | 247 0.00 5.4   0.0 64.3   0.1 0.00 36.9   4.6 77.4   0.2 23.2   3.4
West Incline Village 8/31/26 2020 56.9   3.0 49   4 37.9   0.5 0.8   0.8 N | 354 3.6   3.6 NE | 44 0.00 11.8   0.1 58.8   0.0 0.00 53.0   1.6 70.2   0.2 15.4   1.2
Incline Village (Fairview Blvd) 8/31/26 2020 59.3   3.8 46   3 38.6   1.5 0.8   0.8 WSW | 243 4.1   4.1 SW | 236 0.00 7.7   0.0 71.9   0.1 0.00 54.1   0.8 72.7   0.1 13.7   2.5
Incline Village (Diamond Peak) 8/31/26 2020 56.1   4.3 50   2 37.7   5.2 1.3   1.2 WNW | 298 4.7   3.7 SSW | 208 0.00 2.5   0.1 61.2   0.8 0.00 53.8   2.2 68.0   1.1 7.9   3.2
Incline Village (Mill Creek) 5/30/36 1610 74.5 37 46.5 0.5 SW | 236 1.7 SSW | 213 0.00 0.0 0.0 0.00 74.4 74.5 1.7
Incline Village (Lakeshore Blvd) 8/31/26 2020 60.6   1.0 52   7 43.0   4.3 0.0   0.0 NNE | 22 1.0   1.0 NNE | 27 0.00 17.9   0.6 63.7   0.1 0.00 46.4   3.3 71.9   0.2 11.9   3.2
Glenbrook 8/31/26 2020 61.2   0.6 59   2 46.9   0.1 2.9   2.5 W | 280 6.5   4.1 WSW | 249 0.00 42.8   0.1 59.5   0.2 0.00 49.2   4.7 73.8   0.1 11.6   0.1
Zephyr Cove 8/31/26 2020 61.5   1.9 45   5 40.0   4.4 0.0   0.0 E | 84 0.6   0.6 E | 84 0.00 2.9   0.0 72.9   1.5 0.00 51.9   1.6 73.4   0.8 10.6   2.7
Kingsbury Grade 8/31/26 2020 59.9   1.6 46   7 39.3   5.0 0.2   0.2 WNW | 287 3.2   3.2 NW | 316 0.00 2.6   0.4 71.2   0.9 0.00 48.6   1.8 74.4   0.6 11.9   0.9
South Daggett Pass (Ridge) 8/31/26 2020 56.3   2.8 51   5 38.7   4.9 1.8   0.1 WNW | 288 10.6   4.7 W | 268 0.00 2.2   0.0 64.0   0.4 0.00 53.7   2.4 68.8   1.6 21.5   5.6
Palomino Valley 8/31/26 2020 73.8   2.2 26   8 36.8   6.9 5.7   0.1 W | 263 11.7   2.4 W | 274 0.00 6.7   0.0 80.1   0.5 0.00 47.2   4.9 86.8   2.2 28.3   10.9
East Cold Springs 8/31/26 2020 67.6   3.8 33   8 37.3   3.9 10.0   1.7 WSW | 253 14.5   2.6 W | 264 0.00 1.6   0.0 72.8   0.5 0.00 56.1   7.1 82.8   2.0 26.2   6.8
Peavine 8/22/26 1700 81.6   1.5 27   0 44.0   1.5 22.7   10.4 SW | 225 48.4   26.2 SW | 220 0.00 - 53.4   0.0 0.00 69.4   2.1 87.6   2.1 48.4   26.2
West Verdi Peak 8/31/26 2120 61.1   4.6 43   13 38.7   5.3 2.9   1.6 W | 274 9.9   6.1 NW | 310 0.00 6.6   0.0 71.5   0.2 0.00 51.4   4.4 78.2   0.5 17.9   3.4
West Verdi 8/31/26 2020 69.0   3.0 35   8 40.3   3.6 9.6   7.9 SSW | 204 21.0   16.1 S | 185 0.00 6.3   0.0 82.7   0.7 0.00 50.2   4.4 82.8   0.7 26.0   9.3
South Verdi 8/31/26 2020 67.2   4.3 37   8 40.2   2.6 29.6   15.8 SSW | 210 39.2   20.1 SW | 214 0.00 10.9   0.1 79.6   1.2 0.00 53.6   1.9 79.4   1.4 41.5   18.0
Northwest Reno 8/31/26 2010 70.4   3.7 33   11 40.1   6.8 35.3   24.5 W | 273 45.8   29.8 W | 259 0.00 25.2   0.0 81.1   1.1 0.00 59.4   4.1 83.4   2.1 45.8   25.6
North Lawton 8/28/26 1620 63.8   17.1 74   52 55.4   16.5 1.5   11.6 ESE | 121 5.1   19.0 SE | 124 0.00 - 78.2   0.0 0.05 59.2   7.5 71.9   13.3 20.4   4.6
West Reno (Mogul) 8/31/26 2020 69.0   4.5 35   8 40.2   2.4 10.3   1.9 NNW | 342 22.6   4.6 N | 0 0.00 19.7   0.0 79.0   0.0 0.00 54.5   4.9 81.9   0.1 31.4   13.4
Caughlin (Hunter Lake Trail) 8/31/26 2020 69.1   3.6 34   6 39.9   1.6 17.4   3.2 W | 277 27.0   8.2 WNW | 296 0.00 16.6   0.0 76.0   0.6 0.00 59.1   5.5 82.7   1.1 34.4   12.8
ArrowCreek 8/31/26 2020 73.4   1.4 22   6 32.4   5.2 8.1   1.6 SSW | 193 14.0   4.0 SW | 214 0.00 - 32.0   0.0 0.00 55.2   3.5 82.4   1.7 24.8   7.6
Tracy 8/31/26 2020 77.3   1.8 26   5 39.3   4.3 15.3   8.4 NW | 318 23.5   9.1 NW | 322 0.00 16.2   0.1 82.1   0.6 0.00 57.6   2.6 88.7   4.1 29.2   14.2
Virginia Highlands 8/31/26 2020 66.6   2.5 37   9 39.4   4.7 4.9   1.2 W | 271 12.8   2.4 W | 268 0.00 8.0   0.0 74.4   0.1 0.00 59.5   5.3 78.9   1.0 18.8   1.2
Virginia City 8/31/26 2020 65.5   3.1 39   9 39.8   3.8 15.5   14.1 WNW | 282 24.7   20.7 W | 276 0.00 4.9   0.1 76.9   0.8 0.00 60.2   5.3 76.3   0.7 25.1   7.0
Six Mile Canyon 8/31/26 2020 75.1   3.4 27   12 38.9   11.4 7.5   3.2 WNW | 284 11.0   3.0 WNW | 288 0.00 12.8   0.0 82.2   0.7 0.00 57.4   5.3 86.2   1.0 19.8   3.1
Mt Rose Highway 8/31/26 2020 60.9   2.9 39   2 35.9   1.4 9.6   7.0 SW | 225 24.8   18.8 W | 262 0.00 7.4   0.0 62.2   0.1 0.00 56.0   6.1 73.6   0.4 27.4   11.9
Pleasant Valley 8/31/26 2020 72.6   0.5 28   4 38.1   3.4 8.9   7.4 S | 183 15.4   6.0 S | 172 0.00 2.4   0.0 80.6   0.7 0.00 51.9   5.7 83.6   0.0 22.7   0.0
New Washoe City 8/31/26 2020 69.9   2.5 34   1 40.5   3.2 14.1   9.5 SW | 220 23.7   14.5 WSW | 247 0.00 3.5   0.0 73.7   0.1 0.00 51.9   4.1 81.9   0.8 23.7   5.6
Franktown Creek 8/31/26 2020 70.3   2.4 32   0 39.4   2.5 5.2   2.3 SSW | 207 13.7   7.0 SSW | 192 0.00 7.1   0.0 72.5   0.1 0.00 49.7   3.1 81.0   0.1 21.5   5.6
Musgrove Creek 8/31/26 2020 66.2   3.3 42   3 42.4   1.3 3.8   0.4 SSW | 202 10.9   0.5 WNW | 283 0.00 10.3   0.0 60.9   0.3 0.00 57.7   6.1 77.7   0.1 19.0   1.6
East Carson 11/23/24 0110 28.6   28.4 - - 4.7   11.0 SW | 220 14.7   10.1 SW | 219 0.02 - 50.9   0.1 0.02 -25.9   79.1 42.9   14.6 16.0   10.7
Kings Canyon 8/31/26 2020 69.9   2.0 34   1 40.5   2.7 14.0   3.3 WSW | 245 26.8   9.3 W | 272 0.00 4.1   0.0 72.3   0.4 0.00 51.1   2.0 80.4   0.6 30.6   10.1
Carson City (Voltaire Canyon) 8/31/26 2020 70.6   2.2 35   3 41.9   3.9 14.2   0.9 WSW | 240 23.6   5.0 SW | 215 0.00 2.8   0.0 78.9   0.0 0.00 59.5   3.8 82.3   1.0 31.6   12.9
Jacks Valley 8/31/26 2020 68.2   3.5 41   2 43.6   2.0 10.3   0.4 WNW | 295 20.9   2.6 NW | 304 0.00 4.8   0.0 85.6   0.9 0.00 54.0   4.1 80.7   0.2 29.4   9.3
Genoa 8/31/26 2020 72.3   2.9 33   2 41.3   4.1 4.3   1.7 WNW | 296 18.0   8.8 NNW | 331 0.00 2.5   0.1 77.2   0.2 0.00 54.5   5.9 83.3   0.1 18.0   3.9
South Genoa (Walleys Hot Springs) 8/31/26 2020 74.4   3.5 28   3 38.8   6.1 18.6   8.5 WSW | 244 27.7   9.3 W | 275 0.00 4.5   0.5 74.2   0.1 0.00 45.8   4.2 83.5   0.2 32.5   8.0
SW Gardnerville (HWY 88) 8/31/26 2020 70.8   2.8 32   6 39.1   7.2 8.2   2.4 NNE | 26 10.7   0.9 NNE | 18 0.00 2.8   0.0 70.4   0.6 0.00 46.1   3.6 81.2   0.0 26.4   7.9
Sheridan 8/31/26 2020 72.7   1.1 23   11 32.9   11.0 4.4   1.5 E | 83 10.1   3.6 NE | 34 0.00 1.1   0.0 77.2   0.6 0.00 50.7   5.3 83.8   1.4 30.4   9.6
Ruhenstroth 8/31/26 2020 72.0   0.6 26   10 35.6   8.1 5.9   0.3 SSW | 196 11.0   3.6 SW | 218 0.00 7.2   0.1 85.0   1.4 0.00 49.8   0.6 84.0   2.0 26.8   7.3
Double Spring 8/31/26 2020 66.1   2.7 39   1 40.5   3.0 4.5   0.0 NE | 56 10.7   3.2 ENE | 74 0.00 26.1   0.1 81.9   1.6 0.00 45.7   7.0 78.8   0.6 23.1   5.3
North Topaz Lake 8/31/26 2020 71.5   1.1 29   6 37.9   5.9 8.8   0.4 WNW | 288 14.2   0.5 W | 279 0.00 7.8   0.1 81.9   1.3 0.00 58.9   0.9 81.9   1.2 23.6   3.7
Wild Oat Mountain 8/31/26 2020 69.4   0.2 30   8 36.9   6.4 1.4   6.1 NE | 56 6.0   7.8 SSE | 159 0.00 6.1   0.0 81.0   0.0 0.00 59.1   5.1 81.7   3.7 31.0   11.4
Smith Valley 8/31/26 2020 75.6   0.9 30   2 41.7   2.4 10.4   6.0 WNW | 297 21.1   13.5 WNW | 290 0.00 2.9   0.0 82.5   0.6 0.00 55.4   5.4 86.5   3.7 26.7   13.7
Pine Grove Mountain 8/31/26 2020 59.0   1.3 43   18 36.7   11.7 6.2   0.0 W | 270 9.9   1.2 W | 267 0.00 7.4   0.0 72.3   1.4 0.00 55.4   4.0 71.4   1.8 23.2   5.4
Paradise Hill 8/31/26 2020 78.5   9.4 17   2 30.4   5.3 4.1   1.6 NNW | 327 6.5   0.7 NNW | 338 0.00 10.5   0.0 82.4   1.2 0.00 43.8   2.7 88.1   8.3 18.8   8.1
Winnemucca 8/31/26 2020 74.9   4.0 20   1 31.1   4.9 7.4   4.9 SSE | 159 8.4   4.1 SSE | 159 0.00 5.8   0.0 77.1   0.2 0.00 49.4   0.2 87.9   6.6 23.7   5.3
NE Elko 8/31/26 2020 73.8   7.1 31   12 40.9   17.9 16.1   12.9 SSE | 164 24.3   17.6 SSE | 161 0.00 5.8   0.1 76.0   1.9 0.00 38.9   6.4 84.6   3.8 31.3   9.6
North Elko 8/31/26 2020 69.7   0.4 34   17 39.9   17.6 12.2   1.8 S | 176 20.6   8.5 S | 169 0.00 24.9   0.1 75.6   0.0 0.00 51.0   3.0 83.1   4.7 27.2   6.5
South Elko 8/31/26 2020 66.5   27.6 39   6 41.0   19.7 9.4   5.2 S | 175 17.1   8.9 SSW | 199 0.00 13.8   0.1 73.7   2.7 0.00 54.6   4.1 - 24.8   1.5
Lamoille 8/31/26 2020 70.8   6.4 32   7 39.4   11.2 5.9   2.7 SSW | 208 9.8   0.4 SSE | 158 0.00 6.6   0.1 69.9   1.4 0.00 48.4   0.5 79.8   2.2 28.7   6.6
Reid Gardner Sub 8/31/26 2020 94.3   0.3 30   13 58.4   14.9 12.4   6.2 SSE | 163 21.5   13.4 SSE | 150 0.00 26.9   1.9 92.3   0.2 0.00 69.3   19.2 100.4   1.0 31.4   3.0
Corn Creek 8/31/26 2020 88.2   1.9 21   1 43.0   2.8 7.2   0.5 SE | 129 13.3   4.5 SE | 132 0.00 3.2   0.0 94.9   0.4 0.00 73.8   8.6 95.1   0.1 33.4   1.0
Lucky Strike 8/31/26 2020 74.5   1.5 25   5 35.9   4.7 6.7   1.6 SSW | 192 11.4   4.4 SSW | 202 0.00 3.2   0.0 88.9   2.7 0.00 69.0   4.5 82.3   1.1 29.7   0.1
Lower Angel Peak 8/31/26 2020 68.0   1.6 31   3 36.3   3.8 2.9   0.7 SSE | 152 8.6   3.5 ESE | 109 0.00 3.2   0.1 76.8   0.2 0.00 61.8   4.0 77.7   0.9 23.8   2.2
Angel Peak 8/31/26 2020 57.5   3.5 41   11 34.2   4.2 18.5   11.8 S | 180 28.0   18.9 SSE | 165 0.00 2.5   0.0 70.6   2.5 0.00 54.9   2.4 66.2   2.7 36.1   0.2
Upper Kyle Canyon 8/31/26 2020 61.7   3.8 37   4 35.2   0.1 1.6   7.4 NNW | 341 4.7   21.9 NE | 44 0.00 7.8   0.0 76.8   0.4 0.00 60.3   0.8 69.6   1.3 34.0   2.1
Mt Charleston 8/31/26 2020 61.9   4.2 37   1 35.4   2.9 1.1   5.6 SE | 127 6.3   11.3 ESE | 110 0.00 13.4   0.1 69.7   0.2 0.00 59.2   0.2 70.3   0.1 40.0   11.7
Mid Kyle Canyon 8/31/26 2020 69.4   1.1 30   1 37.0   0.5 5.4   1.4 WSW | 250 10.7   2.6 SW | 220 0.00 5.9   0.0 77.4   0.8 0.00 60.5   5.8 77.4   0.9 28.4   1.2
Blue Diamond 8/31/26 2020 87.2   1.5 21   0 42.5   1.2 1.9   0.2 SW | 234 6.2   1.0 SW | 233 0.00 1.3   0.0 92.7   0.1 0.00 70.1   11.5 93.3   1.2 25.0   1.7
Artesian Sub 8/31/26 2020 94.8   2.4 31   15 59.3   16.1 9.5   6.4 ESE | 113 21.6   14.8 ESE | 108 0.00 11.8   0.0 94.0   0.6 0.00 81.1   8.0 103.1   0.2 25.8   3.3
North Henderson 8/31/26 2020 94.5   2.9 32   16 60.2   16.3 24.5   20.4 SSE | 154 34.4   25.3 SE | 139 0.00 10.6   0.1 98.5   0.9 0.00 84.4   6.7 102.5   0.5 34.8   7.2
Sandy Valley 8/31/26 2020 89.0   0.6 23   1 46.7   1.1 5.7   0.6 E | 91 6.7   2.6 E | 89 0.00 8.6   0.2 97.9   0.1 0.00 74.2   5.8 95.2   0.1 26.0   0.1
Searchlight 8/31/26 2020 81.5   4.3 45   16 58.1   8.7 12.6   12.6 SSE | 155 18.8   18.8 SSE | 160 0.00 6.2   0.1 93.1   3.0 0.00 70.9   8.2 92.2   2.6 34.3   5.7
Laughlin 8/31/26 2020 94.1   5.9 40   5 66.0   1.6 13.2   5.1 S | 186 19.8   5.6 S | 187 0.00 4.6   0.1 103.5   1.4 0.00 89.6   0.4 103.7   5.9 42.8   3.9
31Mission Hills 8/31/26 2020 88.9   4.3 34   17 56.6   14.7 9.3   7.6 S | 182 18.9   15.7 S | 187 0.00 7.4   0.0 96.2   2.7 0.00 80.9   4.7 96.9   2.1 38.5   10.3
32 Enterprise Sierra Cliffs 8/31/26 2020 88.1   1.0 18   0 38.9   0.2 4.3   1.6 SSW | 206 7.6   2.1 SSW | 193 0.00 1.5   0.0 97.1   0.9 0.00 78.0   4.9 94.8   0.4 29.8   2.1
29 Calico Basin 8/31/26 2020 85.2   0.5 19   0 38.2   1.0 8.7   0.8 SSW | 195 12.5   1.1 SSW | 196 0.00 2.7   0.0 91.1   0.0 0.00 75.4   6.2 92.2   1.4 29.8   3.0
28 Indian Springs 8/31/26 2020 86.7   0.7 17   1 36.7   1.0 5.7   1.5 S | 189 8.1   1.4 SSW | 198 0.00 4.8   0.1 92.6   1.0 0.00 70.1   12.7 94.8   1.3 32.5   1.5
30 Jean 8/31/26 2020 88.5   2.5 17   0 38.9   1.5 7.5   4.2 SW | 224 10.9   5.6 SW | 224 0.00 5.5   0.1 95.5   0.2 0.00 71.0   5.5 95.4   0.6 33.5   1.1
VC Highlands NW 8/31/26 2020 64.7   3.1 34   9 35.8   4.5 4.7   0.1 SW | 223 13.7   1.7 SW | 222 0.00 1.7   0.0 75.8   0.5 0.00 59.3   7.3 78.1   2.3 17.1   0.6
Glenbrook-Spooner Summit 8/31/26 2020 56.9   1.8 54   0 40.6   1.7 2.7   0.1 WSW | 257 6.0   1.4 SW | 236 0.00 8.0   0.1 74.5   0.1 0.00 47.8   6.1 69.9   0.5 22.8   4.7
Hobo Hot Springs 8/31/26 2020 71.0   3.0 34   1 41.1   3.1 8.2   0.5 WNW | 290 16.6   1.0 WNW | 286 0.00 1.1   0.0 75.1   0.2 0.00 44.5   4.1 83.8   0.3 25.3   8.3
Jack Valley Ranch 2 8/31/26 2020 67.8   3.6 39   1 42.0   2.5 6.9   1.3 NW | 313 16.6   1.4 NW | 314 0.00 2.2   0.0 78.3   0.9 0.00 54.6   5.2 80.5   0.6 25.3   6.8
Genoa North 2 8/31/26 2020 70.7   3.4 31   1 38.8   3.8 5.8   3.7 WNW | 288 15.5   2.2 NW | 326 0.00 0.9   0.0 82.1   0.8 0.00 53.9   4.7 82.6   0.3 24.5   6.3
Mottsville 2 8/31/26 2020 72.2   2.2 24   9 33.0   10.4 9.5   3.0 NW | 322 23.0   9.4 NNW | 331 0.00 1.3   0.1 76.0   0.8 0.00 47.5   3.6 82.3   0.3 30.6   1.4
Kingsbury Village 3 8/31/26 2020 55.3   2.0 48   5 36.1   4.6 2.7   0.2 N | 354 4.8   1.0 NNW | 348 0.00 3.2   0.0 67.6   1.6 0.00 49.3   3.5 69.4   0.2 15.6   5.5
Kingsbury-Benjamin Dr 2 8/31/26 2020 57.4   2.0 46   5 36.8   4.6 1.6   1.1 W | 261 5.8   4.1 SSW | 212 0.00 3.5   0.2 77.1   1.2 0.00 52.9   4.6 69.7   0.6 17.1   2.7
Smith Valley-Wellington 8/31/26 2020 75.6   6.9 26   0 38.3   6.3 12.8   12.4 SW | 225 20.1   18.4 SW | 232 0.00 3.7   0.0 83.3   0.9 0.00 55.5   9.3 86.7   3.5 22.4   9.1
Sheridan South 2 8/31/26 2020 68.0   3.2 31   5 35.9   6.8 3.7   0.3 NW | 322 9.6   4.6 N | 8 0.00 0.6   0.0 79.8   0.9 0.00 47.0   2.9 83.1   2.1 29.7   8.2
Silver Springs 8/31/26 2020 79.4   3.0 23   6 38.3   10.6 18.2   13.9 W | 281 27.1   21.6 W | 276 0.00 5.2   0.0 85.1   0.8 0.00 54.2   2.5 88.3   4.6 27.8   12.0
Fernley 8/31/26 2020 77.9   2.1 23   4 36.7   7.3 11.0   9.7 NW | 305 15.6   11.2 WNW | 301 0.00 3.4   0.1 88.6   1.4 0.00 54.9   1.5 88.4   5.1 22.5   0.2
Spanish Springs 8/31/26 2020 73.4   1.3 26   5 36.4   4.2 11.3   11.0 WNW | 285 18.8   16.0 W | 270 0.00 10.8   0.0 84.3   0.6 0.00 47.8   2.2 86.7   2.5 25.8   5.1
Suttcliffe South 2 8/31/26 2020 75.6   3.2 23   1 35.3   1.2 12.6   11.9 WSW | 251 18.6   16.0 W | 263 0.00 4.7   0.0 86.4   0.1 0.00 51.5   5.6 85.0   3.5 24.0   8.1
Lemmon Valley North 8/31/26 2020 70.0   3.3 26   6 33.9   3.4 12.0   2.3 SW | 233 18.3   4.0 WSW | 241 0.00 2.1   0.0 74.1   0.6 0.00 39.0   3.1 81.7   1.2 30.9   12.8
Lemmon Valley NW 3 8/31/26 2020 70.2   2.9 26   5 34.2   3.1 9.7   1.3 WNW | 298 16.4   3.7 WNW | 298 0.00 1.6   0.1 86.4   1.0 0.00 46.0   5.3 84.2   2.3 25.2   5.1
VC Highlands North 8/31/26 2020 66.7   2.7 32   8 36.1   4.8 3.4   1.0 SW | 222 9.4   2.7 SSW | 194 0.00 5.5   0.0 86.3   0.6 0.00 46.1   5.6 78.8   1.3 19.2   2.6
Upper Voltaire Cyn 8/31/26 2020 66.4   1.4 35   4 38.3   3.9 11.4   3.5 WSW | 247 22.7   9.2 WSW | 238 0.00 1.2   0.1 78.2   0.8 0.00 58.5   1.5 78.5   1.2 28.4   9.6
Yerington NW 8/31/26 2020 75.3   1.7 30   8 41.9   9.8 11.5   7.4 W | 267 14.7   8.8 W | 281 0.00 7.5   0.0 81.5   0.8 0.00 46.4   1.3 85.9   3.9 24.3   12.4
Spanish Springs SW 8/31/26 2020 72.0   3.4 27   7 36.4   5.3 12.5   1.9 WNW | 302 19.5   2.6 WNW | 299 0.00 1.7   0.0 86.9   0.7 0.00 52.2   4.6 85.2   2.1 27.3   6.6
Cosgrave 2 8/27/26 0750 62.9   4.1 34   3 33.8   1.4 2.6   0.5 WSW | 246 4.1   1.0 W | 267 0.00 3.8   0.1 77.4   2.9 0.00 62.7   3.3 77.4   3.5 11.2   3.9
Winnemucca-Grass Valley 2 8/31/26 2020 74.5   6.3 23   3 33.6   8.1 5.0   1.3 E | 97 7.0   1.1 SSW | 197 0.00 8.3   0.0 76.2   0.5 0.00 39.7   0.7 86.3   5.5 14.4   1.4
Winnemucca-Dutch Flat Rd 8/31/26 2020 73.2   4.9 21   1 31.5   4.9 7.7   0.7 W | 273 9.7   1.2 W | 262 0.00 6.3   0.0 77.8   0.8 0.00 51.5   0.7 87.7   7.7 20.6   8.9
Paradise Valley 2 8/31/26 2020 70.7   5.5 21   0 28.4   4.7 7.0   0.1 NW | 325 9.6   0.6 NW | 323 0.00 13.1   0.0 79.8   0.8 0.00 40.3   1.6 86.7   7.3 19.4   1.2
Golconda 2 8/31/26 2020 72.0   3.9 21   1 29.8   4.1 2.5   2.4 S | 190 4.2   3.1 WSW | 238 0.00 2.2   0.0 87.8   0.4 0.00 48.6   3.0 88.0   7.4 18.6   8.2
Battle Mountain - South 8/31/26 2020 73.7   5.0 21   2 31.8   6.4 3.9   4.8 ESE | 103 5.0   7.6 E | 96 0.00 9.2   0.0 78.7   0.3 0.00 39.4   6.3 89.0   6.0 16.9   3.2
Geiger Summit 8/31/26 2020 62.4   2.5 100   0 62.4   2.5 6.8   5.1 SW | 219 16.6   12.2 SW | 228 0.00 6.8   0.1 76.0   0.1 0.00 56.9   4.8 74.9   0.9 21.9   7.6
Combs Canyon 3 8/31/26 2020 71.7   1.7 29   2 37.6   3.3 9.6   1.0 WSW | 248 20.9   6.1 WSW | 251 0.00 1.1   0.1 81.5   0.3 0.00 55.3   3.0 82.1   0.7 28.6   9.3
Clear Creek 8/31/26 2020 67.0   2.4 35   2 38.6   3.9 11.4   5.9 WSW | 247 23.5   12.3 W | 280 0.00 3.5   0.0 75.2   0.5 0.00 51.9   4.7 77.4   0.9 29.3   11.4
Eastlake 2 8/31/26 2020 69.2   4.1 36   5 41.2   0.6 14.7   2.0 WSW | 246 22.4   0.6 WSW | 240 0.00 3.5   0.0 75.5   0.2 0.00 47.8   2.8 81.4   0.8 31.8   9.1
Lovelock-Colado 2 8/31/26 2020 72.7   4.7 19   1 28.4   3.1 3.4   0.5 NE | 45 5.1   0.4 E | 93 0.00 - 82.5   0.8 0.00 52.1   5.6 87.9   4.4 18.9   1.2
Spanish Springs NW 8/31/26 2020 73.8   2.2 25   5 35.3   3.5 12.8   9.3 WNW | 302 22.0   14.8 W | 268 0.00 13.0   0.1 76.1   0.0 0.00 49.0   3.8 85.5   1.5 28.3   9.2
Battle Mountain NW 8/31/26 2020 76.1   7.7 19   1 31.2   7.6 4.6   0.3 SE | 138 6.3   1.0 SSE | 155 0.00 9.2   0.0 81.1   0.2 0.00 43.6   10.9 89.2   7.9 28.3   3.6
Austin 2 8/31/26 1920 62.2   2.5 43   26 39.6   20.4 5.8   2.0 WSW | 239 10.2   2.9 S | 177 0.00 2.3   0.3 68.4   12.5 0.11 37.4   2.8 77.0   0.2 27.4   3.8
Elko-Osino 8/31/26 2020 71.8   3.4 29   13 38.0   17.8 11.0   7.4 SW | 214 18.1   9.4 SW | 214 0.00 1.7   0.1 81.6   1.3 0.00 40.6   4.2 86.7   6.0 34.2   11.6
Elko-Bill Fishpond 2 8/31/26 2020 72.2   10.2 28   6 37.5   14.1 10.6   3.4 SSE | 154 16.3   7.6 SSE | 160 0.00 3.5   0.1 70.7   3.5 0.00 41.9   4.6 79.6   1.5 34.6   15.6
Spring Creek SE 2 8/31/26 2020 69.8   4.4 31   13 37.6   17.3 8.8   2.8 S | 185 14.8   7.1 S | 171 0.00 0.4   0.0 73.6   0.9 0.00 42.8   3.6 84.1   3.5 24.5   3.5
Spring Creek NW 8/31/26 2010 69.2   2.1 32   17 38.3   16.5 9.8   3.0 SSW | 205 17.3   8.1 SW | 219 0.00 2.3   0.0 74.6   0.6 0.00 47.9   8.2 83.8   4.7 25.1   5.7
Elko-Moleen 8/31/26 2020 71.4 29 37.8 3.6 ESE | 119 7.5 SSW | 202 0.00 6.6 85.0 0.00 71.3 83.0 19.0
Max     94.8 100 66.0 35.3 - 45.8 - 0.00 42.8 103.5 0.11 89.6 103.7 45.8
Avg     71.2 33 39.4 8.2 - 14.6 - 0.00 6.9 77.7 - - - -
Min     55.3 17 28.4 0.0 - 0.6 - 0.00 0.0 0.0 0.00 36.9 66.2 1.7